createdAt,value
2018-08-30T00:00:18.968Z,10.13
2018-08-30T00:02:47.935Z,10.73
2018-08-30T00:05:16.809Z,10.27
2018-08-30T00:07:45.624Z,9.90
2018-08-30T00:10:14.658Z,8.97
2018-08-30T00:12:43.612Z,10.80
2018-08-30T00:15:12.457Z,8.83
2018-08-30T00:17:41.395Z,9.77
2018-08-30T00:20:10.286Z,8.80
2018-08-30T00:22:39.163Z,10.23
2018-08-30T00:25:08.180Z,9.10
2018-08-30T00:27:36.958Z,8.93
2018-08-30T00:30:05.961Z,9.67
2018-08-30T00:32:34.806Z,9.20
2018-08-30T00:35:03.971Z,9.57
2018-08-30T00:37:32.812Z,8.90
2018-08-30T00:40:01.623Z,10.30
2018-08-30T00:42:30.437Z,8.90
2018-08-30T00:44:59.744Z,9.30
2018-08-30T00:47:28.559Z,9.03
2018-08-30T00:49:57.344Z,9.30
2018-08-30T00:52:26.279Z,8.40
2018-08-30T00:54:55.117Z,10.57
2018-08-30T00:57:23.920Z,9.30
2018-08-30T00:59:52.752Z,8.20
2018-08-30T01:02:21.996Z,8.93
2018-08-30T01:04:50.805Z,9.00
2018-08-30T01:07:19.617Z,8.93
2018-08-30T01:09:49.657Z,9.33
2018-08-30T01:12:18.540Z,9.43
2018-08-30T01:14:47.464Z,8.97
2018-08-30T01:17:16.256Z,9.80
2018-08-30T01:19:45.395Z,8.77
2018-08-30T01:22:14.416Z,9.03
2018-08-30T01:24:43.356Z,9.77
2018-08-30T01:27:12.243Z,8.10
2018-08-30T01:29:41.116Z,8.33
2018-08-30T01:32:10.088Z,9.57
2018-08-30T01:34:39.296Z,8.50
2018-08-30T01:37:08.067Z,8.67
2018-08-30T01:39:36.916Z,8.67
2018-08-30T01:42:05.732Z,9.17
2018-08-30T01:44:34.505Z,8.97
2018-08-30T01:47:03.388Z,8.40
2018-08-30T01:49:32.276Z,8.50
2018-08-30T01:52:01.095Z,8.63
2018-08-30T01:54:29.971Z,9.13
2018-08-30T01:56:58.816Z,9.17
2018-08-30T01:59:27.593Z,8.70
2018-08-30T02:01:56.755Z,8.70
2018-08-30T02:04:25.634Z,8.80
2018-08-30T02:06:54.425Z,9.60
2018-08-30T02:09:23.216Z,9.30
2018-08-30T02:11:52.651Z,8.70
2018-08-30T02:14:21.650Z,9.47
2018-08-30T02:16:50.537Z,9.70
2018-08-30T02:19:19.405Z,8.80
2018-08-30T02:21:48.319Z,8.60
2018-08-30T02:24:17.205Z,9.07
2018-08-30T02:26:46.273Z,9.67
2018-08-30T02:29:15.136Z,9.77
2018-08-30T02:31:43.985Z,8.93
2018-08-30T02:34:12.799Z,9.20
2018-08-30T02:36:41.660Z,9.50
2018-08-30T02:39:10.901Z,8.90
2018-08-30T02:41:40.065Z,9.03
2018-08-30T02:44:08.936Z,8.80
2018-08-30T02:46:37.730Z,9.57
2018-08-30T02:49:06.803Z,9.73
2018-08-30T02:51:36.759Z,9.10
2018-08-30T02:54:05.608Z,9.07
2018-08-30T02:56:34.383Z,9.20
2018-08-30T02:59:03.186Z,9.10
2018-08-30T03:01:32.418Z,10.40
2018-08-30T03:04:01.435Z,9.43
2018-08-30T03:06:30.300Z,9.23
2018-08-30T03:08:59.179Z,10.73
2018-08-30T03:11:28.025Z,9.97
2018-08-30T03:13:56.858Z,9.23
2018-08-30T03:16:25.770Z,8.47
2018-08-30T03:18:54.619Z,8.27
2018-08-30T03:21:23.411Z,9.17
2018-08-30T03:23:52.438Z,9.93
2018-08-30T03:26:21.225Z,9.37
2018-08-30T03:28:50.013Z,9.83
2018-08-30T03:31:18.800Z,9.93
2018-08-30T03:33:47.635Z,9.50
2018-08-30T03:36:16.492Z,11.07
2018-08-30T03:38:45.275Z,11.13
2018-08-30T03:41:14.070Z,9.93
2018-08-30T03:43:42.961Z,10.33
2018-08-30T03:46:11.764Z,10.93
2018-08-30T03:48:40.559Z,11.83
2018-08-30T03:51:09.407Z,10.90
2018-08-30T03:53:38.313Z,12.00
2018-08-30T03:56:07.128Z,12.47
2018-08-30T03:58:36.112Z,10.93
2018-08-30T04:01:05.309Z,11.00
2018-08-30T04:03:34.144Z,10.80
2018-08-30T04:06:02.955Z,9.97
2018-08-30T04:08:31.746Z,10.33
2018-08-30T04:11:00.551Z,10.33
2018-08-30T04:13:29.387Z,10.20
2018-08-30T04:15:58.438Z,10.53
2018-08-30T04:18:27.327Z,9.27
2018-08-30T04:20:56.163Z,9.17
2018-08-30T04:23:24.983Z,9.83
2018-08-30T04:25:53.772Z,8.80
2018-08-30T04:28:22.595Z,10.73
2018-08-30T04:30:51.699Z,10.87
2018-08-30T04:33:20.529Z,10.77
2018-08-30T04:35:49.412Z,9.80
2018-08-30T04:38:18.267Z,10.83
2018-08-30T04:40:47.250Z,10.17
2018-08-30T04:43:16.120Z,9.47
2018-08-30T04:45:45.140Z,11.47
2018-08-30T04:48:14.033Z,10.43
2018-08-30T04:50:42.845Z,9.93
2018-08-30T04:53:11.649Z,11.00
2018-08-30T04:55:40.426Z,11.40
2018-08-30T04:58:09.285Z,10.30
2018-08-30T05:00:38.199Z,10.43
2018-08-30T05:03:07.212Z,11.13
2018-08-30T05:05:36.099Z,11.33
2018-08-30T05:08:04.997Z,11.90
2018-08-30T05:10:33.867Z,11.63
2018-08-30T05:13:02.678Z,11.60
2018-08-30T05:15:31.524Z,11.40
2018-08-30T05:18:00.468Z,12.00
2018-08-30T05:20:29.317Z,11.00
2018-08-30T05:22:58.246Z,10.80
2018-08-30T05:25:27.176Z,12.20
2018-08-30T05:27:55.979Z,11.97
2018-08-30T05:30:24.937Z,11.87
2018-08-30T05:32:54.232Z,11.73
2018-08-30T05:35:23.112Z,12.00
2018-08-30T05:37:52.170Z,11.57
2018-08-30T05:40:21.262Z,12.00
2018-08-30T05:42:50.380Z,13.33
2018-08-30T05:45:19.250Z,13.47
2018-08-30T05:47:48.121Z,12.17
2018-08-30T05:50:16.892Z,13.20
2018-08-30T05:52:45.833Z,12.60
2018-08-30T05:55:14.778Z,13.30
2018-08-30T05:57:43.771Z,12.10
2018-08-30T06:00:12.701Z,13.20
2018-08-30T06:02:41.572Z,12.70
2018-08-30T06:05:10.388Z,13.77
2018-08-30T06:07:39.220Z,13.10
2018-08-30T06:10:08.401Z,13.70
2018-08-30T06:12:37.320Z,14.40
2018-08-30T06:15:06.605Z,12.50
2018-08-30T06:17:35.458Z,13.03
2018-08-30T06:20:04.380Z,13.60
2018-08-30T06:22:33.192Z,12.87
2018-08-30T06:25:02.031Z,14.37
2018-08-30T06:27:30.888Z,12.63
2018-08-30T06:29:59.698Z,12.37
2018-08-30T06:32:28.575Z,14.00
2018-08-30T06:34:57.496Z,12.70
2018-08-30T06:37:26.407Z,13.77
2018-08-30T06:39:55.952Z,13.97
2018-08-30T06:42:24.894Z,13.00
2018-08-30T06:44:53.757Z,14.20
2018-08-30T06:47:23.591Z,14.13
2018-08-30T06:49:51.349Z,13.37
2018-08-30T06:52:20.200Z,14.60
2018-08-30T06:54:49.065Z,13.77
2018-08-30T06:57:17.952Z,12.50
2018-08-30T06:59:46.762Z,12.93
2018-08-30T07:02:15.608Z,14.57
2018-08-30T07:04:45.635Z,13.77
2018-08-30T07:07:14.519Z,12.77
2018-08-30T07:09:43.506Z,13.30
2018-08-30T07:12:12.424Z,13.60
2018-08-30T07:14:43.391Z,12.73
2018-08-30T07:17:12.840Z,14.17
2018-08-30T07:19:41.771Z,14.83
2018-08-30T07:22:10.662Z,12.70
2018-08-30T07:24:39.915Z,12.90
2018-08-30T07:27:08.907Z,13.40
2018-08-30T07:29:37.755Z,11.87
2018-08-30T07:32:07.043Z,11.00
2018-08-30T07:34:36.014Z,12.17
2018-08-30T07:37:05.051Z,12.50
2018-08-30T07:39:33.904Z,12.00
2018-08-30T07:42:02.759Z,13.83
2018-08-30T07:44:31.806Z,12.77
2018-08-30T07:47:00.856Z,11.73
2018-08-30T07:49:29.632Z,12.03
2018-08-30T07:51:58.497Z,11.70
2018-08-30T07:54:27.369Z,12.43
2018-08-30T07:56:56.377Z,10.83
2018-08-30T07:59:25.112Z,11.77
2018-08-30T08:01:53.920Z,10.80
2018-08-30T08:04:23.115Z,10.53
2018-08-30T08:06:52.307Z,10.00
2018-08-30T08:09:21.160Z,10.57
2018-08-30T08:11:49.948Z,10.07
2018-08-30T08:14:18.934Z,9.67
2018-08-30T08:16:47.780Z,11.17
2018-08-30T08:19:16.635Z,9.70
2018-08-30T08:21:45.458Z,11.20
2018-08-30T08:24:14.294Z,10.00
2018-08-30T08:26:43.072Z,8.93
2018-08-30T08:29:11.934Z,8.93
2018-08-30T08:31:40.738Z,9.17
2018-08-30T08:34:09.604Z,9.27
2018-08-30T08:36:38.532Z,10.13
2018-08-30T08:39:08.420Z,9.90
2018-08-30T08:41:37.304Z,9.90
2018-08-30T08:44:06.175Z,9.80
2018-08-30T08:46:34.978Z,9.03
2018-08-30T08:49:03.792Z,10.20
2018-08-30T08:51:32.722Z,9.90
2018-08-30T08:54:01.861Z,9.23
2018-08-30T08:56:30.696Z,9.90
2018-08-30T08:58:59.791Z,9.23
2018-08-30T09:01:29.124Z,9.57
2018-08-30T09:03:58.128Z,8.97
2018-08-30T09:06:26.918Z,9.77
2018-08-30T09:08:55.848Z,8.87
2018-08-30T09:11:24.737Z,10.10
2018-08-30T09:13:53.518Z,8.27
2018-08-30T09:16:22.303Z,8.83
2018-08-30T09:18:51.281Z,8.13
2018-08-30T09:21:20.155Z,9.03
2018-08-30T09:23:48.962Z,8.63
2018-08-30T09:26:17.878Z,8.00
2018-08-30T09:28:46.726Z,8.97
2018-08-30T09:31:15.672Z,8.07
2018-08-30T09:33:44.541Z,8.37
2018-08-30T09:36:13.378Z,10.80
2018-08-30T09:38:42.303Z,9.90
2018-08-30T09:41:11.336Z,8.87
2018-08-30T09:43:40.200Z,9.30
2018-08-30T09:46:09.165Z,9.73
2018-08-30T09:48:38.079Z,8.53
2018-08-30T09:51:07.217Z,8.90
2018-08-30T09:53:36.089Z,8.93
2018-08-30T09:56:04.963Z,9.07
2018-08-30T09:58:33.862Z,8.33
2018-08-30T10:01:08.039Z,8.53
2018-08-30T10:03:36.934Z,8.73
2018-08-30T10:06:05.796Z,8.40
2018-08-30T10:08:34.647Z,8.47
2018-08-30T10:11:03.456Z,8.43
2018-08-30T10:13:32.317Z,7.20
2018-08-30T10:16:01.752Z,9.83
2018-08-30T10:18:30.771Z,8.13
2018-08-30T10:20:59.572Z,7.53
2018-08-30T10:23:28.439Z,8.13
2018-08-30T10:25:57.307Z,7.70
2018-08-30T10:28:26.156Z,9.20
2018-08-30T10:30:54.996Z,8.40
2018-08-30T10:33:23.783Z,8.07
2018-08-30T10:35:52.602Z,8.30
2018-08-30T10:38:21.886Z,8.23
2018-08-30T10:40:50.676Z,7.97
2018-08-30T10:43:19.492Z,7.53
2018-08-30T10:45:48.342Z,7.07
2018-08-30T10:48:17.204Z,8.00
2018-08-30T10:50:46.131Z,7.97
2018-08-30T10:53:14.949Z,8.20
2018-08-30T10:55:43.730Z,7.70
2018-08-30T10:58:12.594Z,7.40
2018-08-30T11:00:41.478Z,7.83
2018-08-30T11:03:10.845Z,7.53
2018-08-30T11:05:39.698Z,7.53
2018-08-30T11:08:08.605Z,6.90
2018-08-30T11:10:37.948Z,7.03
2018-08-30T11:13:06.985Z,7.63
2018-08-30T11:15:35.837Z,7.77
2018-08-30T11:18:04.731Z,6.40
2018-08-30T11:20:40.146Z,5.50
2018-08-30T11:23:09.164Z,6.27
2018-08-30T11:25:38.117Z,5.60
2018-08-30T11:28:06.957Z,4.60
2018-08-30T11:30:35.896Z,4.57
2018-08-30T11:33:04.730Z,4.90
2018-08-30T11:35:33.922Z,4.97
2018-08-30T11:38:02.791Z,5.10
2018-08-30T11:40:31.622Z,5.83
2018-08-30T11:43:00.449Z,5.00
2018-08-30T11:45:29.360Z,4.77
2018-08-30T11:47:58.127Z,4.83
2018-08-30T11:50:27.020Z,6.03
2018-08-30T11:52:55.919Z,6.93
2018-08-30T11:55:24.788Z,6.10
2018-08-30T11:57:53.551Z,7.00
2018-08-30T12:00:22.362Z,6.87
2018-08-30T12:02:51.221Z,5.60
2018-08-30T12:05:20.116Z,5.83
2018-08-30T12:07:51.244Z,6.40
2018-08-30T12:10:20.737Z,6.53
2018-08-30T12:12:49.656Z,7.00
2018-08-30T12:15:18.484Z,5.90
2018-08-30T12:17:47.351Z,7.03
2018-08-30T12:20:16.198Z,6.67
2018-08-30T12:22:44.975Z,6.10
2018-08-30T12:25:13.858Z,5.90
2018-08-30T12:27:42.772Z,6.30
2018-08-30T12:30:11.669Z,6.37
2018-08-30T12:32:40.727Z,6.47
2018-08-30T12:35:09.875Z,5.73
2018-08-30T12:37:38.918Z,6.70
2018-08-30T12:40:08.353Z,6.60
2018-08-30T12:42:37.265Z,5.53
2018-08-30T12:45:06.756Z,6.60
2018-08-30T12:47:36.246Z,6.20
2018-08-30T12:50:05.887Z,6.43
2018-08-30T12:52:35.025Z,6.77
2018-08-30T12:55:04.041Z,6.60
2018-08-30T12:57:33.057Z,6.30
2018-08-30T13:00:02.280Z,8.13
2018-08-30T13:02:31.278Z,7.70
2018-08-30T13:05:00.352Z,8.20
2018-08-30T13:07:29.389Z,7.67
2018-08-30T13:09:58.645Z,7.50
2018-08-30T13:12:27.936Z,6.43
2018-08-30T13:14:57.051Z,7.07
2018-08-30T13:17:26.067Z,6.90
2018-08-30T13:19:55.263Z,6.83
2018-08-30T13:22:24.320Z,7.63
2018-08-30T13:24:53.345Z,7.00
2018-08-30T13:27:22.404Z,6.40
2018-08-30T13:29:51.534Z,6.60
2018-08-30T13:32:20.717Z,6.57
2018-08-30T13:34:49.719Z,6.80
2018-08-30T13:37:18.638Z,7.60
2018-08-30T13:39:47.660Z,6.73
2018-08-30T13:42:16.989Z,7.97
2018-08-30T13:44:46.751Z,7.53
2018-08-30T13:47:15.530Z,7.17
2018-08-30T13:49:44.490Z,7.17
2018-08-30T13:52:13.582Z,6.80
2018-08-30T13:54:42.626Z,7.50
2018-08-30T13:57:11.702Z,7.87
2018-08-30T13:59:41.284Z,7.10
2018-08-30T14:02:09.717Z,14.27
2018-08-30T14:04:45.545Z,7.73
2018-08-30T14:07:14.723Z,8.23
2018-08-30T14:09:44.050Z,9.73
2018-08-30T14:12:13.265Z,7.60
2018-08-30T14:14:42.151Z,7.60
2018-08-30T14:17:10.976Z,7.60
2018-08-30T14:19:40.046Z,7.97
2018-08-30T14:22:09.221Z,8.53
2018-08-30T14:24:38.038Z,6.63
2018-08-30T14:27:07.168Z,7.20
2018-08-30T14:29:36.168Z,7.70
2018-08-30T14:32:05.191Z,6.97
2018-08-30T14:34:34.026Z,7.10
2018-08-30T14:37:03.280Z,7.53
2018-08-30T14:39:32.181Z,7.00
2018-08-30T14:42:01.685Z,7.70
2018-08-30T14:44:30.682Z,6.90
2018-08-30T14:46:59.588Z,7.40
2018-08-30T14:49:28.555Z,6.93
2018-08-30T14:51:57.426Z,7.33
2018-08-30T14:54:26.264Z,7.23
2018-08-30T14:56:55.526Z,8.03
2018-08-30T14:59:24.626Z,6.93
2018-08-30T15:01:53.549Z,7.30
2018-08-30T15:04:22.379Z,7.43
2018-08-30T15:06:51.138Z,7.40
2018-08-30T15:09:19.921Z,8.10
2018-08-30T15:11:48.936Z,8.17
2018-08-30T15:14:17.834Z,7.87
2018-08-30T15:16:46.631Z,7.63
2018-08-30T15:19:15.430Z,8.40
2018-08-30T15:21:44.321Z,7.77
2018-08-30T15:24:13.227Z,7.77
2018-08-30T15:26:42.353Z,7.93
2018-08-30T15:29:11.421Z,7.50
2018-08-30T15:31:40.397Z,7.87
2018-08-30T15:34:09.242Z,7.07
2018-08-30T15:36:38.191Z,6.73
2018-08-30T15:39:08.658Z,8.03
2018-08-30T15:41:37.476Z,8.20
2018-08-30T15:44:06.653Z,7.60
2018-08-30T15:46:35.487Z,8.40
2018-08-30T15:49:04.658Z,8.37
2018-08-30T15:51:33.590Z,8.53
2018-08-30T15:54:02.460Z,7.97
2018-08-30T15:56:31.246Z,8.17
2018-08-30T15:59:00.065Z,8.37
2018-08-30T16:01:28.948Z,7.60
2018-08-30T16:03:57.769Z,8.30
2018-08-30T16:06:26.581Z,8.17
2018-08-30T16:08:55.525Z,7.80
2018-08-30T16:11:24.429Z,7.80
2018-08-30T16:13:53.490Z,8.10
2018-08-30T16:16:22.413Z,8.00
2018-08-30T16:18:51.322Z,7.57
2018-08-30T16:21:20.178Z,6.67
2018-08-30T16:23:50.016Z,8.77
2018-08-30T16:26:18.902Z,9.30
2018-08-30T16:28:47.720Z,8.17
2018-08-30T16:31:16.591Z,7.03
2018-08-30T16:33:45.882Z,8.10
2018-08-30T16:36:14.783Z,7.10
2018-08-30T16:38:43.702Z,7.30
2018-08-30T16:41:12.731Z,7.40
2018-08-30T16:43:41.957Z,7.03
2018-08-30T16:46:10.726Z,8.00
2018-08-30T16:48:39.536Z,7.43
2018-08-30T16:51:10.009Z,8.20
2018-08-30T16:53:39.087Z,6.83
2018-08-30T16:56:07.961Z,7.43
2018-08-30T16:58:37.126Z,7.47
2018-08-30T17:01:06.082Z,7.20
2018-08-30T17:03:34.919Z,6.73
2018-08-30T17:06:03.719Z,7.53
2018-08-30T17:08:32.665Z,8.33
2018-08-30T17:11:01.698Z,7.60
2018-08-30T17:13:30.655Z,7.10
2018-08-30T17:15:59.503Z,8.80
2018-08-30T17:18:28.307Z,7.67
2018-08-30T17:20:57.542Z,7.30
2018-08-30T17:23:26.445Z,6.47
2018-08-30T17:25:55.250Z,7.30
2018-08-30T17:28:24.218Z,6.30
2018-08-30T17:30:53.014Z,7.03
2018-08-30T17:33:21.841Z,7.00
2018-08-30T17:35:50.739Z,8.53
2018-08-30T17:38:19.697Z,7.90
2018-08-30T17:40:48.503Z,9.10
2018-08-30T17:43:17.312Z,8.10
2018-08-30T17:45:46.221Z,10.67
2018-08-30T17:48:14.983Z,10.73
2018-08-30T17:50:43.834Z,14.70
2018-08-30T17:53:12.680Z,11.57
2018-08-30T17:55:41.552Z,12.00
2018-08-30T17:58:10.831Z,10.60
2018-08-30T18:00:39.882Z,11.43
2018-08-30T18:03:08.814Z,10.40
2018-08-30T18:05:37.684Z,10.03
2018-08-30T18:08:06.529Z,9.90
2018-08-30T18:10:35.430Z,10.30
2018-08-30T18:13:04.351Z,11.37
2018-08-30T18:15:33.207Z,10.97
2018-08-30T18:18:05.047Z,11.93
2018-08-30T18:20:33.998Z,12.90
2018-08-30T18:23:02.755Z,12.10
2018-08-30T18:25:31.679Z,12.27
2018-08-30T18:28:00.566Z,12.93
2018-08-30T18:30:29.484Z,20.13
2018-08-30T18:32:58.332Z,17.23
2018-08-30T18:35:27.277Z,16.17
2018-08-30T18:37:56.195Z,17.33
2018-08-30T18:40:25.071Z,15.17
2018-08-30T18:42:53.927Z,13.13
2018-08-30T18:45:22.960Z,12.27
2018-08-30T18:47:53.588Z,12.20
2018-08-30T18:50:23.105Z,11.47
2018-08-30T18:52:52.221Z,11.10
2018-08-30T18:55:21.107Z,12.13
2018-08-30T18:57:50.269Z,14.43
2018-08-30T19:00:19.239Z,13.27
2018-08-30T19:02:48.295Z,14.40
2018-08-30T19:05:25.613Z,12.83
2018-08-30T19:07:54.511Z,12.80
2018-08-30T19:10:23.562Z,12.60
2018-08-30T19:12:52.992Z,11.80
2018-08-30T19:15:27.152Z,11.47
2018-08-30T19:18:01.099Z,10.97
2018-08-30T19:20:29.973Z,9.20
2018-08-30T19:22:59.055Z,9.70
2018-08-30T19:25:29.204Z,10.67
2018-08-30T19:27:58.152Z,10.70
2018-08-30T19:30:31.470Z,11.10
2018-08-30T19:33:00.983Z,10.40
2018-08-30T19:35:34.905Z,11.37
2018-08-30T19:38:04.081Z,10.30
2018-08-30T19:40:37.973Z,8.77
2018-08-30T19:43:06.932Z,10.27
2018-08-30T19:45:35.801Z,11.47
2018-08-30T19:48:04.779Z,11.57
2018-08-30T19:50:33.653Z,8.63
2018-08-30T19:53:02.612Z,8.30
2018-08-30T19:55:31.380Z,8.27
2018-08-30T19:58:00.227Z,8.77
2018-08-30T20:00:29.424Z,11.70
2018-08-30T20:02:58.324Z,9.30
2018-08-30T20:05:27.139Z,10.07
2018-08-30T20:07:55.940Z,9.80
2018-08-30T20:10:24.991Z,8.10
2018-08-30T20:12:53.789Z,8.40
2018-08-30T20:15:22.622Z,7.87
2018-08-30T20:17:51.387Z,8.17
2018-08-30T20:20:20.178Z,8.60
2018-08-30T20:22:49.039Z,7.73
2018-08-30T20:25:17.917Z,7.57
2018-08-30T20:27:46.811Z,8.30
2018-08-30T20:30:15.649Z,7.50
2018-08-30T20:32:44.530Z,8.10
2018-08-30T20:35:13.355Z,8.07
2018-08-30T20:37:42.226Z,8.57
2018-08-30T20:40:11.048Z,8.47
2018-08-30T20:42:40.248Z,8.27
2018-08-30T20:45:09.046Z,7.03
2018-08-30T20:47:37.849Z,8.53
2018-08-30T20:50:08.080Z,8.50
2018-08-30T20:52:37.349Z,8.50
2018-08-30T20:55:06.766Z,8.73
2018-08-30T20:57:36.061Z,9.33
2018-08-30T21:00:05.664Z,9.03
2018-08-30T21:02:34.724Z,7.83
2018-08-30T21:05:03.595Z,7.63
2018-08-30T21:07:32.375Z,8.43
2018-08-30T21:10:01.362Z,7.97
2018-08-30T21:12:30.204Z,8.43
2018-08-30T21:14:59.069Z,8.37
2018-08-30T21:17:28.334Z,12.07
2018-08-30T21:19:57.213Z,13.77
2018-08-30T21:22:25.970Z,10.83
2018-08-30T21:24:54.809Z,9.27
2018-08-30T21:27:23.631Z,9.20
2018-08-30T21:29:52.426Z,9.07
2018-08-30T21:32:21.267Z,9.87
2018-08-30T21:34:50.073Z,10.67
2018-08-30T21:37:18.859Z,8.50
2018-08-30T21:39:47.661Z,10.90
2018-08-30T21:42:16.526Z,9.90
2018-08-30T21:44:45.312Z,8.37
2018-08-30T21:47:14.178Z,8.10
2018-08-30T21:49:43.014Z,8.27
2018-08-30T21:52:11.930Z,7.93
2018-08-30T21:54:40.738Z,8.07
2018-08-30T21:57:09.689Z,8.50
2018-08-30T21:59:38.609Z,7.70
2018-08-30T22:02:07.505Z,7.43
2018-08-30T22:04:36.359Z,8.43
2018-08-30T22:07:05.220Z,8.13
2018-08-30T22:09:34.005Z,7.57
2018-08-30T22:12:03.166Z,8.00
2018-08-30T22:14:31.991Z,8.23
2018-08-30T22:17:00.733Z,8.30
2018-08-30T22:19:29.600Z,7.60
2018-08-30T22:21:58.467Z,7.97
2018-08-30T22:24:27.254Z,8.80
2018-08-30T22:26:56.013Z,7.57
2018-08-30T22:29:24.961Z,8.07
2018-08-30T22:31:53.783Z,8.13
2018-08-30T22:34:22.693Z,8.27
2018-08-30T22:36:51.561Z,7.53
2018-08-30T22:39:20.329Z,8.77
2018-08-30T22:41:49.199Z,8.07
2018-08-30T22:44:18.044Z,8.50
2018-08-30T22:46:46.860Z,10.40
2018-08-30T22:49:15.742Z,7.90
2018-08-30T22:51:44.586Z,8.13
2018-08-30T22:54:13.470Z,10.47
2018-08-30T22:56:42.422Z,8.70
2018-08-30T22:59:14.194Z,8.67
2018-08-30T23:01:42.940Z,8.93
2018-08-30T23:04:11.708Z,9.83
2018-08-30T23:06:40.633Z,9.70
2018-08-30T23:09:10.728Z,8.80
2018-08-30T23:11:40.004Z,8.37
2018-08-30T23:14:09.119Z,8.53
2018-08-30T23:16:38.042Z,9.87
2018-08-30T23:19:06.913Z,9.20
2018-08-30T23:21:35.759Z,8.07
2018-08-30T23:24:04.699Z,8.97
2018-08-30T23:26:33.934Z,8.17
2018-08-30T23:29:02.894Z,8.67
2018-08-30T23:31:31.964Z,8.63
2018-08-30T23:34:01.131Z,8.47
2018-08-30T23:36:30.033Z,8.23
2018-08-30T23:38:58.824Z,8.40
2018-08-30T23:41:27.696Z,8.87
2018-08-30T23:43:56.522Z,8.57
2018-08-30T23:46:25.406Z,8.97
2018-08-30T23:48:54.225Z,8.17
2018-08-30T23:51:24.824Z,8.77
2018-08-30T23:53:53.723Z,7.50
2018-08-30T23:56:22.593Z,8.83
2018-08-30T23:59:02.695Z,8.50
